sensor_id;sensor_type;location;lat;lon;timestamp;P1;durP1;ratioP1;P2;durP2;ratioP2
72645;SDS011;60687;53.876;10.674;2022-08-27T00:05:16;27.17;;;13.10;;
72645;SDS011;60687;53.876;10.674;2022-08-27T00:15:18;29.20;;;13.63;;
72645;SDS011;60687;53.876;10.674;2022-08-27T00:25:24;30.33;;;14.02;;
72645;SDS011;60687;53.876;10.674;2022-08-27T00:35:29;22.73;;;12.03;;
72645;SDS011;60687;53.876;10.674;2022-08-27T00:45:37;28.10;;;12.90;;
72645;SDS011;60687;53.876;10.674;2022-08-27T00:55:41;29.95;;;13.00;;
72645;SDS011;60687;53.876;10.674;2022-08-27T01:05:46;24.50;;;12.77;;
72645;SDS011;60687;53.876;10.674;2022-08-27T01:15:49;30.10;;;15.00;;
72645;SDS011;60687;53.876;10.674;2022-08-27T01:25:53;26.23;;;13.80;;
72645;SDS011;60687;53.876;10.674;2022-08-27T01:35:56;25.08;;;12.95;;
72645;SDS011;60687;53.876;10.674;2022-08-27T01:46:00;25.57;;;12.87;;
72645;SDS011;60687;53.876;10.674;2022-08-27T01:56:02;24.57;;;13.07;;
72645;SDS011;60687;53.876;10.674;2022-08-27T02:06:07;18.52;;;7.97;;
72645;SDS011;60687;53.876;10.674;2022-08-27T02:16:09;9.70;;;3.43;;
72645;SDS011;60687;53.876;10.674;2022-08-27T02:26:13;11.10;;;3.50;;
72645;SDS011;60687;53.876;10.674;2022-08-27T02:36:16;8.63;;;2.20;;
72645;SDS011;60687;53.876;10.674;2022-08-27T02:46:19;8.73;;;2.50;;
72645;SDS011;60687;53.876;10.674;2022-08-27T02:56:22;7.80;;;2.13;;
72645;SDS011;60687;53.876;10.674;2022-08-27T03:06:25;6.27;;;1.90;;
72645;SDS011;60687;53.876;10.674;2022-08-27T03:16:27;6.18;;;1.80;;
72645;SDS011;60687;53.876;10.674;2022-08-27T03:26:31;5.90;;;2.00;;
72645;SDS011;60687;53.876;10.674;2022-08-27T03:36:34;6.07;;;1.80;;
72645;SDS011;60687;53.876;10.674;2022-08-27T03:46:38;6.53;;;1.88;;
72645;SDS011;60687;53.876;10.674;2022-08-27T03:56:40;7.57;;;2.67;;
72645;SDS011;60687;53.876;10.674;2022-08-27T04:06:44;6.90;;;2.57;;
72645;SDS011;60687;53.876;10.674;2022-08-27T04:16:46;9.52;;;3.00;;
72645;SDS011;60687;53.876;10.674;2022-08-27T04:26:50;13.83;;;7.23;;
72645;SDS011;60687;53.876;10.674;2022-08-27T04:36:53;20.63;;;9.77;;
72645;SDS011;60687;53.876;10.674;2022-08-27T04:46:58;29.23;;;13.17;;
72645;SDS011;60687;53.876;10.674;2022-08-27T04:57:02;26.05;;;14.15;;
72645;SDS011;60687;53.876;10.674;2022-08-27T05:07:06;29.23;;;14.63;;
72645;SDS011;60687;53.876;10.674;2022-08-27T05:17:09;27.83;;;13.20;;
72645;SDS011;60687;53.876;10.674;2022-08-27T05:27:12;25.60;;;12.27;;
72645;SDS011;60687;53.876;10.674;2022-08-27T05:37:15;21.63;;;10.87;;
72645;SDS011;60687;53.876;10.674;2022-08-27T05:47:18;23.07;;;10.80;;
72645;SDS011;60687;53.876;10.674;2022-08-27T05:57:22;18.83;;;9.27;;
72645;SDS011;60687;53.876;10.674;2022-08-27T06:07:25;20.50;;;10.07;;
72645;SDS011;60687;53.876;10.674;2022-08-27T06:17:28;18.03;;;8.97;;
72645;SDS011;60687;53.876;10.674;2022-08-27T06:27:32;19.23;;;9.77;;
72645;SDS011;60687;53.876;10.674;2022-08-27T06:37:34;16.92;;;9.10;;
72645;SDS011;60687;53.876;10.674;2022-08-27T06:47:38;16.77;;;8.47;;
72645;SDS011;60687;53.876;10.674;2022-08-27T06:57:40;18.87;;;8.73;;
72645;SDS011;60687;53.876;10.674;2022-08-27T07:07:44;21.33;;;8.82;;
72645;SDS011;60687;53.876;10.674;2022-08-27T07:17:47;15.83;;;7.63;;
72645;SDS011;60687;53.876;10.674;2022-08-27T07:27:50;17.23;;;8.30;;
72645;SDS011;60687;53.876;10.674;2022-08-27T07:48:33;21.70;;;7.20;;
72645;SDS011;60687;53.876;10.674;2022-08-27T07:58:35;14.30;;;6.20;;
72645;SDS011;60687;53.876;10.674;2022-08-27T08:08:40;14.37;;;6.03;;
72645;SDS011;60687;53.876;10.674;2022-08-27T08:18:42;14.60;;;6.38;;
72645;SDS011;60687;53.876;10.674;2022-08-27T08:28:46;12.10;;;6.33;;
72645;SDS011;60687;53.876;10.674;2022-08-27T08:38:48;11.47;;;5.67;;
72645;SDS011;60687;53.876;10.674;2022-08-27T08:48:54;11.23;;;5.90;;
72645;SDS011;60687;53.876;10.674;2022-08-27T08:58:58;13.20;;;5.80;;
72645;SDS011;60687;53.876;10.674;2022-08-27T09:09:06;12.07;;;5.27;;
72645;SDS011;60687;53.876;10.674;2022-08-27T09:19:09;13.07;;;5.40;;
72645;SDS011;60687;53.876;10.674;2022-08-27T09:29:15;12.07;;;5.50;;
72645;SDS011;60687;53.876;10.674;2022-08-27T09:39:25;10.07;;;4.70;;
72645;SDS011;60687;53.876;10.674;2022-08-27T09:49:40;12.63;;;5.07;;
72645;SDS011;60687;53.876;10.674;2022-08-27T09:59:49;12.30;;;4.93;;
72645;SDS011;60687;53.876;10.674;2022-08-27T10:33:05;10.55;;;4.80;;
72645;SDS011;60687;53.876;10.674;2022-08-27T10:43:20;13.37;;;4.67;;
72645;SDS011;60687;53.876;10.674;2022-08-27T10:53:32;12.67;;;4.37;;
72645;SDS011;60687;53.876;10.674;2022-08-27T11:03:40;8.82;;;3.35;;
72645;SDS011;60687;53.876;10.674;2022-08-27T11:13:47;11.57;;;4.17;;
72645;SDS011;60687;53.876;10.674;2022-08-27T11:23:52;9.87;;;4.27;;
72645;SDS011;60687;53.876;10.674;2022-08-27T11:33:58;9.73;;;4.07;;
72645;SDS011;60687;53.876;10.674;2022-08-27T11:54:47;11.57;;;4.27;;
72645;SDS011;60687;53.876;10.674;2022-08-27T12:04:49;11.53;;;4.53;;
72645;SDS011;60687;53.876;10.674;2022-08-27T12:25:06;13.33;;;4.73;;
72645;SDS011;60687;53.876;10.674;2022-08-27T12:35:10;10.57;;;5.20;;
72645;SDS011;60687;53.876;10.674;2022-08-27T12:45:19;12.68;;;4.90;;
72645;SDS011;60687;53.876;10.674;2022-08-27T12:55:26;9.17;;;4.33;;
72645;SDS011;60687;53.876;10.674;2022-08-27T13:16:12;13.77;;;5.23;;
72645;SDS011;60687;53.876;10.674;2022-08-27T13:58:53;10.43;;;4.05;;
72645;SDS011;60687;53.876;10.674;2022-08-27T14:09:06;7.67;;;3.23;;
72645;SDS011;60687;53.876;10.674;2022-08-27T14:19:22;9.03;;;3.27;;
72645;SDS011;60687;53.876;10.674;2022-08-27T14:29:25;8.52;;;2.92;;
72645;SDS011;60687;53.876;10.674;2022-08-27T14:39:29;10.10;;;3.40;;
72645;SDS011;60687;53.876;10.674;2022-08-27T15:10:24;8.73;;;2.25;;
72645;SDS011;60687;53.876;10.674;2022-08-27T15:20:26;8.67;;;2.80;;
72645;SDS011;60687;53.876;10.674;2022-08-27T15:30:41;8.73;;;2.23;;
72645;SDS011;60687;53.876;10.674;2022-08-27T15:51:25;7.85;;;1.77;;
72645;SDS011;60687;53.876;10.674;2022-08-27T16:12:09;9.00;;;1.73;;
72645;SDS011;60687;53.876;10.674;2022-08-27T16:22:15;7.18;;;1.95;;
72645;SDS011;60687;53.876;10.674;2022-08-27T16:32:19;8.40;;;1.77;;
72645;SDS011;60687;53.876;10.674;2022-08-27T16:52:33;6.10;;;1.55;;
72645;SDS011;60687;53.876;10.674;2022-08-27T17:02:36;8.37;;;1.47;;
72645;SDS011;60687;53.876;10.674;2022-08-27T17:12:40;11.43;;;2.13;;
72645;SDS011;60687;53.876;10.674;2022-08-27T17:22:52;6.75;;;1.40;;
72645;SDS011;60687;53.876;10.674;2022-08-27T17:33:04;8.57;;;1.83;;
72645;SDS011;60687;53.876;10.674;2022-08-27T17:43:09;9.70;;;2.33;;
72645;SDS011;60687;53.876;10.674;2022-08-27T17:53:12;8.60;;;1.98;;
72645;SDS011;60687;53.876;10.674;2022-08-27T18:03:16;13.60;;;2.00;;
72645;SDS011;60687;53.876;10.674;2022-08-27T18:13:20;9.97;;;1.97;;
72645;SDS011;60687;53.876;10.674;2022-08-27T18:23:22;7.63;;;1.75;;
72645;SDS011;60687;53.876;10.674;2022-08-27T18:33:26;7.90;;;1.80;;
72645;SDS011;60687;53.876;10.674;2022-08-27T18:43:29;9.93;;;2.20;;
72645;SDS011;60687;53.876;10.674;2022-08-27T18:53:38;9.93;;;2.88;;
72645;SDS011;60687;53.876;10.674;2022-08-27T19:03:42;12.20;;;4.17;;
72645;SDS011;60687;53.876;10.674;2022-08-27T19:13:46;10.90;;;2.70;;
72645;SDS011;60687;53.876;10.674;2022-08-27T19:24:10;11.70;;;3.17;;
72645;SDS011;60687;53.876;10.674;2022-08-27T19:34:15;10.30;;;2.60;;
72645;SDS011;60687;53.876;10.674;2022-08-27T19:44:17;11.07;;;2.13;;
72645;SDS011;60687;53.876;10.674;2022-08-27T19:54:21;8.57;;;2.13;;
72645;SDS011;60687;53.876;10.674;2022-08-27T20:04:26;9.35;;;2.20;;
72645;SDS011;60687;53.876;10.674;2022-08-27T20:14:30;11.00;;;2.30;;
72645;SDS011;60687;53.876;10.674;2022-08-27T20:24:32;8.93;;;2.30;;
72645;SDS011;60687;53.876;10.674;2022-08-27T20:34:37;11.23;;;2.53;;
72645;SDS011;60687;53.876;10.674;2022-08-27T20:44:40;8.60;;;2.10;;
72645;SDS011;60687;53.876;10.674;2022-08-27T20:54:44;11.03;;;2.10;;
72645;SDS011;60687;53.876;10.674;2022-08-27T21:04:46;11.20;;;2.77;;
72645;SDS011;60687;53.876;10.674;2022-08-27T21:14:51;9.90;;;2.38;;
72645;SDS011;60687;53.876;10.674;2022-08-27T21:24:54;11.77;;;2.90;;
72645;SDS011;60687;53.876;10.674;2022-08-27T21:34:58;13.20;;;3.43;;
72645;SDS011;60687;53.876;10.674;2022-08-27T21:45:02;8.60;;;2.75;;
72645;SDS011;60687;53.876;10.674;2022-08-27T21:55:06;11.63;;;2.97;;
72645;SDS011;60687;53.876;10.674;2022-08-27T22:05:11;12.10;;;2.70;;
72645;SDS011;60687;53.876;10.674;2022-08-27T22:15:15;10.85;;;2.60;;
72645;SDS011;60687;53.876;10.674;2022-08-27T22:25:18;9.63;;;2.60;;
72645;SDS011;60687;53.876;10.674;2022-08-27T22:35:21;9.20;;;2.47;;
72645;SDS011;60687;53.876;10.674;2022-08-27T22:45:24;12.37;;;2.67;;
72645;SDS011;60687;53.876;10.674;2022-08-27T22:55:28;9.05;;;2.40;;
72645;SDS011;60687;53.876;10.674;2022-08-27T23:05:31;12.17;;;2.80;;
72645;SDS011;60687;53.876;10.674;2022-08-27T23:15:37;9.50;;;2.63;;
72645;SDS011;60687;53.876;10.674;2022-08-27T23:25:49;10.77;;;2.72;;
72645;SDS011;60687;53.876;10.674;2022-08-27T23:36:13;12.20;;;3.10;;
72645;SDS011;60687;53.876;10.674;2022-08-27T23:46:15;10.33;;;2.90;;
72645;SDS011;60687;53.876;10.674;2022-08-27T23:56:19;10.13;;;2.80;;
